Terminal Aerodrome Forecast
Issued by NWS Pittsburgh, PA

Current Version | Previous Version | Text Only | Print | Product List | Glossary Off
Versions: 1 2 3 4 5 6 7 8 9 10 11 12 13 14 15 16 17 18 19 20 21 22 23 24 25 26 27

000
FTUS41 KPBZ 211100
TAFPIT
TAF
KPIT 211120Z 2112/2218 17006KT P6SM SCT250
     FM220300 VRB05KT P6SM OVC120
     FM221000 24010KT 6SM -RA BKN050
     FM221400 22012G18KT 5SM -RA BKN025=

USA.gov is the U.S. government's official web portal to all federal, state and local government web resources and services.